createdAt,value
2019-01-29T00:00:44.078Z,1.51
2019-01-29T00:03:13.309Z,1.51
2019-01-29T00:05:42.515Z,1.46
2019-01-29T00:08:11.714Z,1.40
2019-01-29T00:10:40.956Z,1.34
2019-01-29T00:13:10.182Z,1.33
2019-01-29T00:15:39.378Z,1.37
2019-01-29T00:18:08.580Z,1.32
2019-01-29T00:20:37.820Z,1.30
2019-01-29T00:23:07.007Z,1.21
2019-01-29T00:25:36.238Z,1.14
2019-01-29T00:28:05.484Z,1.04
2019-01-29T00:30:34.706Z,0.97
2019-01-29T00:33:04.238Z,0.89
2019-01-29T00:35:33.475Z,0.82
2019-01-29T00:38:02.676Z,0.76
2019-01-29T00:40:31.920Z,0.65
2019-01-29T00:43:01.101Z,0.60
2019-01-29T00:45:30.335Z,0.52
2019-01-29T00:47:59.532Z,0.44
2019-01-29T00:50:28.763Z,0.38
2019-01-29T00:52:57.995Z,0.41
2019-01-29T00:55:27.238Z,0.34
2019-01-29T00:57:56.461Z,0.15
2019-01-29T01:00:25.653Z,0.15
2019-01-29T01:02:54.889Z,0.12
2019-01-29T01:05:24.136Z,0.04
2019-01-29T01:07:53.370Z,-0.03
2019-01-29T01:10:22.545Z,0.04
2019-01-29T01:12:51.741Z,-0.03
2019-01-29T01:15:20.978Z,-0.01
2019-01-29T01:17:50.218Z,-0.04
2019-01-29T01:20:19.407Z,-0.08
2019-01-29T01:22:51.011Z,-0.08
2019-01-29T01:25:19.584Z,-0.03
2019-01-29T01:27:48.810Z,-0.06
2019-01-29T01:30:19.043Z,-0.03
2019-01-29T01:32:48.267Z,0.15
2019-01-29T01:35:17.575Z,0.23
2019-01-29T01:37:46.770Z,0.34
2019-01-29T01:40:21.151Z,0.42
2019-01-29T01:42:50.378Z,0.48
2019-01-29T01:45:19.574Z,0.55
2019-01-29T01:47:48.808Z,0.54
2019-01-29T01:50:18.003Z,0.54
2019-01-29T01:52:47.237Z,0.58
2019-01-29T01:55:17.674Z,0.60
2019-01-29T01:57:46.906Z,0.62
2019-01-29T02:00:17.972Z,0.61
2019-01-29T02:02:47.216Z,0.57
2019-01-29T02:05:16.434Z,0.59
2019-01-29T02:07:45.667Z,0.56
2019-01-29T02:10:18.159Z,0.59
2019-01-29T02:12:47.355Z,0.64
2019-01-29T02:15:16.574Z,0.74
2019-01-29T02:17:45.788Z,0.81
2019-01-29T02:20:16.265Z,0.89
2019-01-29T02:22:45.459Z,0.89
2019-01-29T02:25:14.711Z,0.98
2019-01-29T02:27:43.940Z,1.02
2019-01-29T02:30:15.773Z,1.08
2019-01-29T02:32:45.000Z,1.19
2019-01-29T02:35:14.232Z,1.21
2019-01-29T02:37:43.428Z,1.22
2019-01-29T02:40:26.485Z,1.32
2019-01-29T02:42:55.678Z,1.35
2019-01-29T02:45:24.903Z,1.42
2019-01-29T02:47:54.103Z,1.51
2019-01-29T02:50:23.346Z,1.58
2019-01-29T02:52:52.548Z,1.68
2019-01-29T02:55:21.769Z,1.77
2019-01-29T02:57:50.958Z,1.86
2019-01-29T03:00:22.543Z,1.93
2019-01-29T03:02:51.882Z,1.98
2019-01-29T03:05:21.089Z,2.02
2019-01-29T03:07:50.442Z,2.06
2019-01-29T03:10:22.494Z,2.08
2019-01-29T03:12:51.683Z,2.10
2019-01-29T03:15:26.501Z,2.08
2019-01-29T03:17:55.700Z,2.06
2019-01-29T03:20:24.941Z,1.94
2019-01-29T03:22:54.155Z,1.87
2019-01-29T03:25:23.393Z,1.81
2019-01-29T03:27:52.623Z,1.81
2019-01-29T03:30:22.959Z,1.82
2019-01-29T03:32:52.184Z,1.85
2019-01-29T03:35:21.523Z,1.87
2019-01-29T03:37:50.713Z,1.90
2019-01-29T03:40:24.806Z,1.94
2019-01-29T03:42:54.469Z,1.94
2019-01-29T03:45:23.697Z,1.95
2019-01-29T03:47:52.896Z,1.96
2019-01-29T03:50:22.779Z,2.03
2019-01-29T03:52:51.971Z,2.07
2019-01-29T03:55:21.206Z,2.10
2019-01-29T03:57:50.417Z,2.16
2019-01-29T04:00:25.352Z,2.18
2019-01-29T04:02:54.671Z,2.16
2019-01-29T04:05:23.911Z,2.18
2019-01-29T04:07:53.104Z,2.20
2019-01-29T04:10:22.333Z,2.21
2019-01-29T04:12:51.527Z,2.24
2019-01-29T04:15:22.810Z,2.25
2019-01-29T04:17:56.786Z,2.21
2019-01-29T04:20:26.205Z,2.24
2019-01-29T04:22:55.390Z,2.25
2019-01-29T04:25:24.579Z,2.25
2019-01-29T04:27:54.879Z,2.26
2019-01-29T04:30:24.200Z,2.27
2019-01-29T04:32:53.444Z,2.25
2019-01-29T04:35:22.674Z,2.26
2019-01-29T04:37:51.900Z,2.26
2019-01-29T04:40:21.140Z,2.25
2019-01-29T04:42:50.437Z,2.25
2019-01-29T04:45:19.635Z,2.25
2019-01-29T04:47:48.865Z,2.20
2019-01-29T04:50:20.025Z,2.15
2019-01-29T04:52:50.127Z,2.09
2019-01-29T04:55:20.621Z,2.05
2019-01-29T04:57:49.826Z,2.06
2019-01-29T05:00:21.587Z,2.08
2019-01-29T05:02:50.790Z,2.11
2019-01-29T05:05:20.555Z,2.16
2019-01-29T05:07:49.967Z,2.11
2019-01-29T05:10:21.195Z,2.09
2019-01-29T05:12:50.399Z,2.05
2019-01-29T05:15:20.384Z,2.02
2019-01-29T05:17:49.579Z,2.03
2019-01-29T05:20:20.553Z,2.02
2019-01-29T05:22:49.753Z,2.01
2019-01-29T05:25:18.960Z,1.99
2019-01-29T05:27:48.281Z,1.99
2019-01-29T05:30:23.094Z,1.99
2019-01-29T05:32:52.277Z,2.00
2019-01-29T05:35:21.507Z,2.07
2019-01-29T05:37:50.708Z,2.03
2019-01-29T05:40:23.490Z,2.01
2019-01-29T05:42:52.722Z,1.94
2019-01-29T05:45:22.787Z,1.87
2019-01-29T05:47:51.978Z,1.74
2019-01-29T05:50:21.342Z,1.58
2019-01-29T05:52:51.607Z,1.44
2019-01-29T05:55:20.834Z,1.34
2019-01-29T05:57:50.034Z,1.31
2019-01-29T06:00:27.000Z,1.33
2019-01-29T06:02:56.261Z,1.41
2019-01-29T06:05:25.535Z,1.49
2019-01-29T06:07:54.793Z,1.54
2019-01-29T06:10:24.144Z,1.56
2019-01-29T06:12:53.381Z,1.52
2019-01-29T06:15:24.782Z,1.42
2019-01-29T06:17:54.008Z,1.32
2019-01-29T06:20:26.007Z,1.28
2019-01-29T06:22:55.243Z,1.33
2019-01-29T06:25:24.508Z,1.38
2019-01-29T06:27:53.808Z,1.36
2019-01-29T06:30:24.739Z,1.33
2019-01-29T06:32:53.983Z,1.16
2019-01-29T06:35:23.172Z,1.03
2019-01-29T06:37:52.675Z,0.92
2019-01-29T06:40:24.023Z,0.80
2019-01-29T06:42:53.382Z,0.75
2019-01-29T06:45:24.021Z,0.73
2019-01-29T06:47:53.531Z,0.73
2019-01-29T06:50:26.825Z,0.76
2019-01-29T06:52:56.256Z,0.79
2019-01-29T06:55:25.969Z,0.90
2019-01-29T06:57:56.128Z,1.09
2019-01-29T07:00:31.014Z,1.26
2019-01-29T07:03:00.888Z,1.42
2019-01-29T07:05:30.098Z,1.55
2019-01-29T07:08:00.328Z,1.64
2019-01-29T07:10:29.522Z,1.73
2019-01-29T07:12:58.716Z,1.80
2019-01-29T07:15:47.281Z,1.82
2019-01-29T07:18:34.382Z,1.85
2019-01-29T07:21:05.851Z,1.89
2019-01-29T07:23:35.073Z,1.86
2019-01-29T07:26:04.443Z,1.80
2019-01-29T07:28:35.273Z,1.76
2019-01-29T07:31:04.485Z,1.71
2019-01-29T07:33:33.708Z,1.65
2019-01-29T07:36:02.903Z,1.63
2019-01-29T07:38:32.131Z,1.69
2019-01-29T07:41:01.348Z,1.78
2019-01-29T07:43:31.627Z,1.85
2019-01-29T07:46:00.900Z,1.92
2019-01-29T07:48:30.101Z,1.94
2019-01-29T07:50:59.432Z,1.90
2019-01-29T07:53:28.642Z,1.85
2019-01-29T07:55:57.882Z,1.77
2019-01-29T07:58:27.071Z,1.74
2019-01-29T08:00:56.561Z,1.76
2019-01-29T08:03:25.791Z,1.81
2019-01-29T08:05:54.979Z,1.81
2019-01-29T08:08:24.209Z,1.84
2019-01-29T08:10:53.768Z,1.93
2019-01-29T08:13:22.990Z,2.02
2019-01-29T08:15:52.183Z,2.18
2019-01-29T08:18:21.445Z,2.47
2019-01-29T08:20:50.763Z,2.73
2019-01-29T08:23:20.057Z,2.97
2019-01-29T08:25:49.389Z,3.19
2019-01-29T08:28:18.516Z,3.34
2019-01-29T08:30:47.893Z,3.42
2019-01-29T08:33:17.395Z,3.47
2019-01-29T08:35:46.609Z,3.55
2019-01-29T08:38:15.789Z,3.60
2019-01-29T08:40:45.025Z,3.65
2019-01-29T08:43:14.214Z,3.66
2019-01-29T08:45:43.448Z,3.68
2019-01-29T08:48:12.668Z,3.75
2019-01-29T08:50:42.929Z,3.84
2019-01-29T08:53:12.194Z,3.90
2019-01-29T08:55:41.388Z,4.00
2019-01-29T08:58:11.551Z,4.07
2019-01-29T09:00:40.859Z,3.97
2019-01-29T09:03:10.038Z,3.86
2019-01-29T09:05:39.285Z,3.75
2019-01-29T09:08:08.471Z,3.78
2019-01-29T09:10:37.670Z,3.92
2019-01-29T09:13:06.930Z,3.98
2019-01-29T09:15:36.113Z,4.14
2019-01-29T09:18:06.177Z,4.33
2019-01-29T09:20:35.369Z,4.63
2019-01-29T09:23:04.561Z,4.79
2019-01-29T09:25:33.821Z,4.84
2019-01-29T09:28:04.066Z,4.89
2019-01-29T09:30:34.358Z,4.91
2019-01-29T09:33:04.120Z,5.02
2019-01-29T09:35:33.309Z,5.13
2019-01-29T09:38:02.577Z,5.40
2019-01-29T09:40:31.786Z,5.54
2019-01-29T09:43:01.058Z,5.56
2019-01-29T09:45:30.259Z,5.65
2019-01-29T09:47:59.493Z,5.66
2019-01-29T09:50:28.690Z,5.69
2019-01-29T09:52:57.887Z,5.63
2019-01-29T09:55:29.553Z,5.63
2019-01-29T09:57:58.004Z,5.73
2019-01-29T10:00:38.440Z,5.64
2019-01-29T10:03:07.729Z,5.62
2019-01-29T10:05:36.927Z,5.58
2019-01-29T10:08:06.148Z,5.79
2019-01-29T10:10:35.340Z,5.80
2019-01-29T10:13:04.641Z,5.75
2019-01-29T10:15:35.680Z,5.75
2019-01-29T10:18:05.369Z,5.73
2019-01-29T10:20:34.605Z,5.82
2019-01-29T10:23:04.175Z,5.92
2019-01-29T10:25:37.786Z,5.98
2019-01-29T10:28:04.298Z,6.06
2019-01-29T10:30:33.538Z,5.94
2019-01-29T10:33:02.735Z,6.00
2019-01-29T10:35:31.953Z,5.85
2019-01-29T10:38:01.137Z,5.86
2019-01-29T10:40:30.361Z,6.00
2019-01-29T10:42:59.561Z,5.99
2019-01-29T10:45:30.048Z,6.16
2019-01-29T10:47:59.281Z,6.18
2019-01-29T10:50:30.311Z,6.21
2019-01-29T10:52:59.806Z,6.10
2019-01-29T10:55:29.028Z,6.21
2019-01-29T10:57:58.293Z,6.21
2019-01-29T11:00:30.539Z,6.15
2019-01-29T11:02:59.718Z,6.11
2019-01-29T11:05:28.907Z,5.96
2019-01-29T11:07:58.321Z,5.70
2019-01-29T11:10:27.859Z,5.80
2019-01-29T11:12:57.058Z,5.83
2019-01-29T11:15:32.272Z,5.94
2019-01-29T11:18:01.474Z,6.05
2019-01-29T11:20:30.689Z,6.04
2019-01-29T11:23:00.956Z,6.21
2019-01-29T11:25:30.758Z,6.30
2019-01-29T11:27:59.957Z,6.16
2019-01-29T11:30:31.720Z,6.18
2019-01-29T11:33:00.912Z,6.20
2019-01-29T11:35:30.148Z,6.17
2019-01-29T11:37:59.384Z,6.43
2019-01-29T11:40:30.317Z,6.35
2019-01-29T11:42:59.550Z,6.35
2019-01-29T11:45:40.933Z,6.46
2019-01-29T11:48:10.119Z,6.27
2019-01-29T11:50:39.358Z,6.38
2019-01-29T11:53:08.560Z,6.55
2019-01-29T11:55:37.789Z,6.19
2019-01-29T11:58:07.336Z,6.16
2019-01-29T12:00:38.956Z,6.55
2019-01-29T12:03:08.127Z,6.70
2019-01-29T12:05:37.366Z,6.83
2019-01-29T12:08:06.838Z,6.42
2019-01-29T12:10:36.165Z,6.53
2019-01-29T12:13:05.515Z,6.61
2019-01-29T12:15:34.750Z,6.33
2019-01-29T12:18:04.646Z,6.28
2019-01-29T12:20:33.873Z,6.33
2019-01-29T12:23:04.097Z,6.37
2019-01-29T12:25:33.321Z,6.27
2019-01-29T12:28:02.561Z,5.94
2019-01-29T12:30:31.752Z,5.95
2019-01-29T12:33:02.506Z,5.82
2019-01-29T12:35:31.739Z,5.88
2019-01-29T12:38:00.978Z,5.89
2019-01-29T12:40:30.209Z,6.12
2019-01-29T12:42:59.452Z,6.10
2019-01-29T12:45:28.641Z,6.10
2019-01-29T12:47:57.872Z,6.14
2019-01-29T12:50:28.647Z,6.13
2019-01-29T12:53:03.790Z,6.13
2019-01-29T12:55:33.191Z,6.14
2019-01-29T12:58:02.390Z,6.24
2019-01-29T13:00:33.310Z,6.05
2019-01-29T13:03:02.516Z,6.08
2019-01-29T13:05:32.809Z,6.12
2019-01-29T13:08:02.141Z,6.12
2019-01-29T13:10:31.455Z,6.07
2019-01-29T13:13:00.684Z,6.12
2019-01-29T13:15:31.743Z,5.87
2019-01-29T13:18:01.571Z,5.99
2019-01-29T13:20:31.041Z,5.83
2019-01-29T13:23:00.220Z,5.79
2019-01-29T13:25:29.455Z,6.03
2019-01-29T13:27:58.654Z,6.19
2019-01-29T13:30:33.056Z,6.24
2019-01-29T13:33:02.332Z,6.13
2019-01-29T13:35:33.404Z,6.11
2019-01-29T13:38:02.609Z,6.14
2019-01-29T13:40:31.848Z,5.87
2019-01-29T13:43:01.038Z,5.75
2019-01-29T13:45:30.268Z,5.54
2019-01-29T13:47:59.507Z,5.23
2019-01-29T13:50:31.842Z,5.09
2019-01-29T13:53:01.036Z,4.97
2019-01-29T13:55:30.236Z,4.82
2019-01-29T13:57:59.852Z,4.66
2019-01-29T14:00:33.703Z,4.56
2019-01-29T14:03:03.225Z,4.47
2019-01-29T14:05:32.462Z,4.37
2019-01-29T14:08:01.735Z,4.28
2019-01-29T14:10:30.898Z,4.31
2019-01-29T14:13:00.099Z,4.34
2019-01-29T14:15:33.908Z,4.46
2019-01-29T14:18:04.173Z,4.58
2019-01-29T14:20:33.531Z,4.71
2019-01-29T14:23:02.776Z,4.87
2019-01-29T14:25:31.969Z,4.92
2019-01-29T14:28:01.311Z,5.04
2019-01-29T14:30:31.401Z,5.17
2019-01-29T14:33:00.630Z,5.23
2019-01-29T14:35:29.866Z,5.22
2019-01-29T14:38:02.337Z,5.21
2019-01-29T14:40:33.719Z,5.33
2019-01-29T14:43:02.918Z,5.37
2019-01-29T14:45:33.205Z,5.38
2019-01-29T14:48:02.403Z,5.42
2019-01-29T14:50:31.683Z,5.45
2019-01-29T14:53:01.008Z,5.46
2019-01-29T14:55:30.324Z,5.51
2019-01-29T14:57:59.558Z,5.53
2019-01-29T15:00:37.526Z,5.48
2019-01-29T15:03:06.998Z,5.32
2019-01-29T15:05:36.176Z,5.22
2019-01-29T15:08:05.507Z,5.15
2019-01-29T15:10:34.890Z,5.03
2019-01-29T15:13:04.232Z,4.93
2019-01-29T15:15:51.330Z,4.88
2019-01-29T15:18:25.317Z,4.86
2019-01-29T15:20:54.510Z,4.78
2019-01-29T15:23:23.866Z,4.72
2019-01-29T15:25:53.036Z,4.59
2019-01-29T15:28:22.274Z,4.57
2019-01-29T15:30:51.487Z,4.51
2019-01-29T15:33:20.729Z,4.44
2019-01-29T15:35:49.926Z,4.37
2019-01-29T15:38:19.164Z,4.34
2019-01-29T15:40:48.627Z,4.28
2019-01-29T15:43:17.871Z,4.26
2019-01-29T15:45:47.058Z,4.22
2019-01-29T15:48:16.410Z,4.18
2019-01-29T15:50:46.341Z,4.15
2019-01-29T15:53:15.575Z,4.08
2019-01-29T15:55:44.767Z,4.04
2019-01-29T15:58:14.019Z,3.96
2019-01-29T16:00:43.212Z,3.93
2019-01-29T16:03:12.438Z,3.88
2019-01-29T16:05:42.191Z,3.81
2019-01-29T16:08:14.421Z,3.76
2019-01-29T16:10:44.954Z,3.73
2019-01-29T16:13:14.194Z,3.71
2019-01-29T16:15:43.458Z,3.71
2019-01-29T16:18:13.932Z,3.70
2019-01-29T16:20:43.120Z,3.72
2019-01-29T16:23:12.402Z,3.71
2019-01-29T16:25:41.601Z,3.71
2019-01-29T16:28:10.836Z,3.71
2019-01-29T16:30:40.091Z,3.73
2019-01-29T16:33:09.288Z,3.71
2019-01-29T16:35:40.260Z,3.70
2019-01-29T16:38:09.670Z,3.71
2019-01-29T16:40:41.172Z,3.71
2019-01-29T16:43:10.409Z,3.72
2019-01-29T16:45:39.587Z,3.71
2019-01-29T16:48:10.359Z,3.68
2019-01-29T16:50:39.662Z,3.68
2019-01-29T16:53:09.805Z,3.71
2019-01-29T16:55:38.995Z,3.73
2019-01-29T16:58:08.241Z,3.75
2019-01-29T17:00:42.196Z,3.77
2019-01-29T17:03:11.434Z,3.77
2019-01-29T17:05:40.628Z,3.79
2019-01-29T17:08:11.764Z,3.81
2019-01-29T17:10:40.751Z,3.79
2019-01-29T17:13:09.978Z,3.82
2019-01-29T17:15:39.533Z,3.79
2019-01-29T17:18:10.901Z,3.78
2019-01-29T17:20:42.386Z,3.77
2019-01-29T17:23:11.723Z,3.75
2019-01-29T17:25:40.905Z,3.74
2019-01-29T17:28:10.271Z,3.75
2019-01-29T17:30:46.346Z,3.75
2019-01-29T17:33:17.713Z,3.75
2019-01-29T17:35:47.178Z,3.76
2019-01-29T17:38:16.451Z,3.75
2019-01-29T17:40:46.329Z,3.75
2019-01-29T17:43:15.591Z,3.75
2019-01-29T17:45:47.524Z,3.75
2019-01-29T17:48:16.704Z,3.72
2019-01-29T17:50:46.164Z,3.69
2019-01-29T17:53:15.402Z,3.65
2019-01-29T17:55:45.832Z,3.59
2019-01-29T17:58:16.859Z,3.55
2019-01-29T18:00:53.501Z,3.46
2019-01-29T18:03:22.752Z,3.37
2019-01-29T18:05:51.962Z,3.23
2019-01-29T18:08:21.192Z,3.11
2019-01-29T18:10:50.401Z,3.01
2019-01-29T18:13:19.655Z,2.90
2019-01-29T18:15:48.852Z,2.78
2019-01-29T18:18:18.101Z,2.63
2019-01-29T18:20:47.289Z,2.45
2019-01-29T18:23:17.064Z,2.34
2019-01-29T18:25:46.299Z,2.23
2019-01-29T18:28:15.850Z,2.14
2019-01-29T18:30:45.045Z,2.00
2019-01-29T18:33:14.321Z,1.85
2019-01-29T18:35:43.705Z,1.76
2019-01-29T18:38:12.941Z,1.71
2019-01-29T18:40:46.608Z,1.61
2019-01-29T18:43:15.806Z,1.52
2019-01-29T18:45:45.066Z,1.51
2019-01-29T18:48:14.345Z,1.47
2019-01-29T18:50:43.520Z,1.37
2019-01-29T18:53:12.760Z,1.24
2019-01-29T18:55:42.022Z,1.18
2019-01-29T18:58:12.686Z,1.12
2019-01-29T19:00:42.262Z,1.06
2019-01-29T19:03:13.069Z,1.08
2019-01-29T19:05:43.227Z,1.05
2019-01-29T19:08:12.481Z,1.10
2019-01-29T19:10:41.678Z,1.08
2019-01-29T19:13:10.886Z,1.04
2019-01-29T19:15:40.123Z,1.06
2019-01-29T19:18:10.083Z,1.04
2019-01-29T19:20:39.597Z,0.99
2019-01-29T19:23:08.926Z,0.91
2019-01-29T19:25:38.163Z,0.95
2019-01-29T19:28:07.490Z,0.91
2019-01-29T19:30:36.872Z,0.89
2019-01-29T19:33:06.050Z,0.83
2019-01-29T19:35:35.225Z,0.79
2019-01-29T19:38:04.497Z,0.80
2019-01-29T19:40:33.803Z,0.80
2019-01-29T19:43:03.020Z,0.77
2019-01-29T19:45:34.385Z,0.76
2019-01-29T19:48:05.485Z,0.73
2019-01-29T19:50:34.892Z,0.73
2019-01-29T19:53:04.613Z,0.73
2019-01-29T19:55:34.104Z,0.76
2019-01-29T19:58:09.129Z,0.75
2019-01-29T20:00:37.681Z,0.81
2019-01-29T20:03:06.890Z,0.89
2019-01-29T20:05:36.140Z,0.98
2019-01-29T20:08:05.768Z,0.99
2019-01-29T20:10:35.004Z,0.97
2019-01-29T20:13:05.358Z,0.97
2019-01-29T20:15:34.719Z,0.96
2019-01-29T20:18:04.222Z,1.09
2019-01-29T20:20:41.033Z,1.15
2019-01-29T20:23:10.295Z,1.06
2019-01-29T20:25:39.490Z,1.02
2019-01-29T20:28:08.736Z,1.05
2019-01-29T20:30:39.712Z,1.03
2019-01-29T20:33:08.964Z,0.98
2019-01-29T20:35:38.193Z,1.03
2019-01-29T20:38:07.708Z,1.04
2019-01-29T20:40:36.956Z,1.01
2019-01-29T20:43:06.158Z,0.95
2019-01-29T20:45:35.428Z,0.88
2019-01-29T20:48:04.712Z,0.81
2019-01-29T20:50:35.979Z,0.73
2019-01-29T20:53:05.171Z,0.77
2019-01-29T20:55:34.411Z,0.70
2019-01-29T20:58:04.538Z,0.64
2019-01-29T21:00:36.282Z,0.52
2019-01-29T21:03:05.590Z,0.46
2019-01-29T21:05:34.804Z,0.54
2019-01-29T21:08:04.365Z,0.48
2019-01-29T21:10:33.672Z,0.45
2019-01-29T21:13:03.978Z,0.36
2019-01-29T21:15:38.543Z,0.27
2019-01-29T21:18:04.588Z,0.25
2019-01-29T21:20:33.756Z,0.21
2019-01-29T21:23:03.276Z,0.18
2019-01-29T21:25:32.479Z,0.19
2019-01-29T21:28:01.719Z,0.19
2019-01-29T21:30:39.427Z,0.12
2019-01-29T21:33:08.953Z,0.04
2019-01-29T21:35:38.187Z,-0.01
2019-01-29T21:38:07.454Z,0.03
2019-01-29T21:40:36.653Z,0.08
2019-01-29T21:43:05.900Z,0.12
2019-01-29T21:45:35.617Z,0.10
2019-01-29T21:48:05.173Z,0.07
2019-01-29T21:50:35.464Z,0.02
2019-01-29T21:53:05.066Z,-0.02
2019-01-29T21:55:34.298Z,-0.04
2019-01-29T21:58:04.617Z,-0.01
2019-01-29T22:00:38.802Z,-0.09
2019-01-29T22:03:08.370Z,-0.12
2019-01-29T22:05:37.614Z,-0.14
2019-01-29T22:08:07.350Z,-0.12
2019-01-29T22:10:37.567Z,-0.15
2019-01-29T22:13:07.765Z,-0.14
2019-01-29T22:15:37.007Z,-0.12
2019-01-29T22:18:06.439Z,-0.12
2019-01-29T22:20:35.709Z,-0.10
2019-01-29T22:23:04.948Z,-0.09
2019-01-29T22:25:35.779Z,-0.15
2019-01-29T22:28:05.915Z,-0.16
2019-01-29T22:30:40.031Z,-0.16
2019-01-29T22:33:09.258Z,-0.19
2019-01-29T22:35:38.475Z,-0.27
2019-01-29T22:38:07.712Z,-0.30
2019-01-29T22:40:36.961Z,-0.24
2019-01-29T22:43:06.156Z,-0.24
2019-01-29T22:45:35.379Z,-0.23
2019-01-29T22:48:05.290Z,-0.21
2019-01-29T22:50:36.930Z,-0.16
2019-01-29T22:53:06.162Z,-0.23
2019-01-29T22:55:35.362Z,-0.19
2019-01-29T22:58:05.233Z,-0.23
2019-01-29T23:01:00.008Z,-0.27
2019-01-29T23:03:38.058Z,-0.25
2019-01-29T23:06:16.215Z,-0.27
2019-01-29T23:08:45.469Z,-0.31
2019-01-29T23:11:14.662Z,-0.34
2019-01-29T23:13:43.959Z,-0.33
2019-01-29T23:16:13.201Z,-0.26
2019-01-29T23:18:42.401Z,-0.27
2019-01-29T23:21:11.642Z,-0.19
2019-01-29T23:23:40.844Z,-0.30
2019-01-29T23:26:10.076Z,-0.36
2019-01-29T23:28:39.395Z,-0.36
2019-01-29T23:31:08.600Z,-0.39
2019-01-29T23:33:37.831Z,-0.37
2019-01-29T23:36:07.024Z,-0.36
2019-01-29T23:38:36.270Z,-0.39
2019-01-29T23:41:05.451Z,-0.37
2019-01-29T23:43:34.687Z,-0.38
2019-01-29T23:46:04.427Z,-0.26
2019-01-29T23:48:33.788Z,-0.25
2019-01-29T23:51:03.031Z,-0.30
2019-01-29T23:53:32.272Z,-0.29
2019-01-29T23:56:01.491Z,-0.27
2019-01-29T23:58:30.724Z,-0.34
